sensor_id;sensor_type;location;lat;lon;timestamp;temperature;humidity
26224;DHT22;14820;48.682;8.890;2022-08-30T00:00:19;16.40;99.90
26224;DHT22;14820;48.682;8.890;2022-08-30T00:03:06;16.30;99.90
26224;DHT22;14820;48.682;8.890;2022-08-30T00:05:33;16.30;99.90
26224;DHT22;14820;48.682;8.890;2022-08-30T00:07:59;16.30;99.90
26224;DHT22;14820;48.682;8.890;2022-08-30T00:10:26;16.30;99.90
26224;DHT22;14820;48.682;8.890;2022-08-30T00:12:53;16.40;99.90
26224;DHT22;14820;48.682;8.890;2022-08-30T00:15:19;16.40;99.90
26224;DHT22;14820;48.682;8.890;2022-08-30T00:17:46;16.40;99.90
26224;DHT22;14820;48.682;8.890;2022-08-30T00:20:14;16.30;99.90
26224;DHT22;14820;48.682;8.890;2022-08-30T00:22:40;16.20;99.90
26224;DHT22;14820;48.682;8.890;2022-08-30T00:25:07;16.10;99.90
26224;DHT22;14820;48.682;8.890;2022-08-30T00:27:33;16.00;99.90
26224;DHT22;14820;48.682;8.890;2022-08-30T00:29:59;16.00;99.90
26224;DHT22;14820;48.682;8.890;2022-08-30T00:32:25;15.90;99.90
26224;DHT22;14820;48.682;8.890;2022-08-30T00:34:52;15.90;99.90
26224;DHT22;14820;48.682;8.890;2022-08-30T00:37:19;15.90;99.90
26224;DHT22;14820;48.682;8.890;2022-08-30T00:39:46;15.80;99.90
26224;DHT22;14820;48.682;8.890;2022-08-30T00:42:13;15.90;99.90
26224;DHT22;14820;48.682;8.890;2022-08-30T00:44:40;15.90;99.90
26224;DHT22;14820;48.682;8.890;2022-08-30T00:47:06;15.80;99.90
26224;DHT22;14820;48.682;8.890;2022-08-30T00:49:33;15.80;99.90
26224;DHT22;14820;48.682;8.890;2022-08-30T00:52:01;15.70;99.90
26224;DHT22;14820;48.682;8.890;2022-08-30T00:54:28;15.60;99.90
26224;DHT22;14820;48.682;8.890;2022-08-30T00:56:55;15.60;99.90
26224;DHT22;14820;48.682;8.890;2022-08-30T00:59:22;15.60;99.90
26224;DHT22;14820;48.682;8.890;2022-08-30T01:01:49;15.60;99.90
26224;DHT22;14820;48.682;8.890;2022-08-30T01:04:15;15.60;99.90
26224;DHT22;14820;48.682;8.890;2022-08-30T01:06:44;15.50;99.90
26224;DHT22;14820;48.682;8.890;2022-08-30T01:09:11;15.50;99.90
26224;DHT22;14820;48.682;8.890;2022-08-30T01:11:38;15.50;99.90
26224;DHT22;14820;48.682;8.890;2022-08-30T01:14:06;15.50;99.90
26224;DHT22;14820;48.682;8.890;2022-08-30T01:16:34;15.50;99.90
26224;DHT22;14820;48.682;8.890;2022-08-30T01:19:01;15.50;99.90
26224;DHT22;14820;48.682;8.890;2022-08-30T01:21:47;15.40;99.90
26224;DHT22;14820;48.682;8.890;2022-08-30T01:24:14;15.40;99.90
26224;DHT22;14820;48.682;8.890;2022-08-30T01:26:40;15.40;99.90
26224;DHT22;14820;48.682;8.890;2022-08-30T01:29:12;15.40;99.90
26224;DHT22;14820;48.682;8.890;2022-08-30T01:31:39;15.40;99.90
26224;DHT22;14820;48.682;8.890;2022-08-30T01:34:06;15.30;99.90
26224;DHT22;14820;48.682;8.890;2022-08-30T01:36:36;15.20;99.90
26224;DHT22;14820;48.682;8.890;2022-08-30T01:39:03;15.20;99.90
26224;DHT22;14820;48.682;8.890;2022-08-30T01:41:32;15.20;99.90
26224;DHT22;14820;48.682;8.890;2022-08-30T01:44:00;15.20;99.90
26224;DHT22;14820;48.682;8.890;2022-08-30T01:46:29;15.20;99.90
26224;DHT22;14820;48.682;8.890;2022-08-30T01:48:56;15.20;99.90
26224;DHT22;14820;48.682;8.890;2022-08-30T01:51:25;15.20;99.90
26224;DHT22;14820;48.682;8.890;2022-08-30T01:53:51;15.10;99.90
26224;DHT22;14820;48.682;8.890;2022-08-30T01:56:18;15.10;99.90
26224;DHT22;14820;48.682;8.890;2022-08-30T01:58:44;15.20;99.90
26224;DHT22;14820;48.682;8.890;2022-08-30T02:01:12;15.10;99.90
26224;DHT22;14820;48.682;8.890;2022-08-30T02:03:40;15.10;99.90
26224;DHT22;14820;48.682;8.890;2022-08-30T02:06:09;15.10;99.90
26224;DHT22;14820;48.682;8.890;2022-08-30T02:08:36;15.00;99.90
26224;DHT22;14820;48.682;8.890;2022-08-30T02:11:03;15.00;99.90
26224;DHT22;14820;48.682;8.890;2022-08-30T02:13:29;15.00;99.90
26224;DHT22;14820;48.682;8.890;2022-08-30T02:15:55;15.00;99.90
26224;DHT22;14820;48.682;8.890;2022-08-30T02:18:25;15.00;99.90
26224;DHT22;14820;48.682;8.890;2022-08-30T02:20:52;15.00;99.90
26224;DHT22;14820;48.682;8.890;2022-08-30T02:23:17;14.90;99.90
26224;DHT22;14820;48.682;8.890;2022-08-30T02:25:43;14.90;99.90
26224;DHT22;14820;48.682;8.890;2022-08-30T02:28:10;14.90;99.90
26224;DHT22;14820;48.682;8.890;2022-08-30T02:30:36;14.90;99.90
26224;DHT22;14820;48.682;8.890;2022-08-30T02:33:02;14.80;99.90
26224;DHT22;14820;48.682;8.890;2022-08-30T02:35:27;14.80;99.90
26224;DHT22;14820;48.682;8.890;2022-08-30T02:37:53;14.80;99.90
26224;DHT22;14820;48.682;8.890;2022-08-30T02:40:19;14.80;99.90
26224;DHT22;14820;48.682;8.890;2022-08-30T02:42:47;14.70;99.90
26224;DHT22;14820;48.682;8.890;2022-08-30T02:45:13;14.80;99.90
26224;DHT22;14820;48.682;8.890;2022-08-30T02:47:40;14.70;99.90
26224;DHT22;14820;48.682;8.890;2022-08-30T02:50:07;14.70;99.90
26224;DHT22;14820;48.682;8.890;2022-08-30T02:52:35;14.70;99.90
26224;DHT22;14820;48.682;8.890;2022-08-30T02:55:01;14.70;99.90
26224;DHT22;14820;48.682;8.890;2022-08-30T02:57:27;14.70;99.90
26224;DHT22;14820;48.682;8.890;2022-08-30T02:59:53;14.70;99.90
26224;DHT22;14820;48.682;8.890;2022-08-30T03:02:18;14.70;99.90
26224;DHT22;14820;48.682;8.890;2022-08-30T03:04:44;14.60;99.90
26224;DHT22;14820;48.682;8.890;2022-08-30T03:07:11;14.60;99.90
26224;DHT22;14820;48.682;8.890;2022-08-30T03:09:37;14.50;99.90
26224;DHT22;14820;48.682;8.890;2022-08-30T03:12:04;14.60;99.90
26224;DHT22;14820;48.682;8.890;2022-08-30T03:14:31;14.50;99.90
26224;DHT22;14820;48.682;8.890;2022-08-30T03:16:57;14.50;99.90
26224;DHT22;14820;48.682;8.890;2022-08-30T03:19:23;14.50;99.90
26224;DHT22;14820;48.682;8.890;2022-08-30T03:21:50;14.50;99.90
26224;DHT22;14820;48.682;8.890;2022-08-30T03:24:16;14.50;99.90
26224;DHT22;14820;48.682;8.890;2022-08-30T03:26:41;14.40;99.90
26224;DHT22;14820;48.682;8.890;2022-08-30T03:29:07;14.40;99.90
26224;DHT22;14820;48.682;8.890;2022-08-30T03:31:32;14.40;99.90
26224;DHT22;14820;48.682;8.890;2022-08-30T03:33:58;14.40;99.90
26224;DHT22;14820;48.682;8.890;2022-08-30T03:36:24;14.40;99.90
26224;DHT22;14820;48.682;8.890;2022-08-30T03:38:50;14.40;99.90
26224;DHT22;14820;48.682;8.890;2022-08-30T03:41:15;14.30;99.90
26224;DHT22;14820;48.682;8.890;2022-08-30T03:43:42;14.30;99.90
26224;DHT22;14820;48.682;8.890;2022-08-30T03:46:08;14.30;99.90
26224;DHT22;14820;48.682;8.890;2022-08-30T03:48:35;14.30;99.90
26224;DHT22;14820;48.682;8.890;2022-08-30T03:51:01;14.30;99.90
26224;DHT22;14820;48.682;8.890;2022-08-30T03:53:26;14.30;99.90
26224;DHT22;14820;48.682;8.890;2022-08-30T03:55:52;14.30;99.90
26224;DHT22;14820;48.682;8.890;2022-08-30T03:58:18;14.30;99.90
26224;DHT22;14820;48.682;8.890;2022-08-30T04:00:43;14.30;99.90
26224;DHT22;14820;48.682;8.890;2022-08-30T04:03:09;14.20;99.90
26224;DHT22;14820;48.682;8.890;2022-08-30T04:05:35;14.30;99.90
26224;DHT22;14820;48.682;8.890;2022-08-30T04:08:00;14.20;99.90
26224;DHT22;14820;48.682;8.890;2022-08-30T04:10:26;14.20;99.90
26224;DHT22;14820;48.682;8.890;2022-08-30T04:12:52;14.20;99.90
26224;DHT22;14820;48.682;8.890;2022-08-30T04:15:18;14.20;99.90
26224;DHT22;14820;48.682;8.890;2022-08-30T04:17:45;14.20;99.90
26224;DHT22;14820;48.682;8.890;2022-08-30T04:20:11;14.10;99.90
26224;DHT22;14820;48.682;8.890;2022-08-30T04:22:37;14.10;99.90
26224;DHT22;14820;48.682;8.890;2022-08-30T04:25:03;14.00;99.90
26224;DHT22;14820;48.682;8.890;2022-08-30T04:27:29;14.00;99.90
26224;DHT22;14820;48.682;8.890;2022-08-30T04:29:55;14.00;99.90
26224;DHT22;14820;48.682;8.890;2022-08-30T04:32:21;14.00;99.90
26224;DHT22;14820;48.682;8.890;2022-08-30T04:34:47;14.00;99.90
26224;DHT22;14820;48.682;8.890;2022-08-30T04:37:12;13.90;99.90
26224;DHT22;14820;48.682;8.890;2022-08-30T04:39:39;13.90;99.90
26224;DHT22;14820;48.682;8.890;2022-08-30T04:42:05;13.90;99.90
26224;DHT22;14820;48.682;8.890;2022-08-30T04:44:31;13.90;99.90
26224;DHT22;14820;48.682;8.890;2022-08-30T04:46:58;13.90;99.90
26224;DHT22;14820;48.682;8.890;2022-08-30T04:49:24;13.90;99.90
26224;DHT22;14820;48.682;8.890;2022-08-30T04:51:49;13.90;99.90
26224;DHT22;14820;48.682;8.890;2022-08-30T04:54:15;13.90;99.90
26224;DHT22;14820;48.682;8.890;2022-08-30T04:56:41;13.80;99.90
26224;DHT22;14820;48.682;8.890;2022-08-30T04:59:08;13.90;99.90
26224;DHT22;14820;48.682;8.890;2022-08-30T05:01:34;13.90;99.90
26224;DHT22;14820;48.682;8.890;2022-08-30T05:04:00;14.00;99.90
26224;DHT22;14820;48.682;8.890;2022-08-30T05:06:27;14.00;99.90
26224;DHT22;14820;48.682;8.890;2022-08-30T05:08:53;14.00;99.90
26224;DHT22;14820;48.682;8.890;2022-08-30T05:11:20;14.10;99.90
26224;DHT22;14820;48.682;8.890;2022-08-30T05:13:46;14.10;99.90
26224;DHT22;14820;48.682;8.890;2022-08-30T05:16:12;14.10;99.90
26224;DHT22;14820;48.682;8.890;2022-08-30T05:18:43;14.10;99.90
26224;DHT22;14820;48.682;8.890;2022-08-30T05:21:18;14.10;99.90
26224;DHT22;14820;48.682;8.890;2022-08-30T05:23:44;14.10;99.90
26224;DHT22;14820;48.682;8.890;2022-08-30T05:26:15;14.20;99.90
26224;DHT22;14820;48.682;8.890;2022-08-30T05:28:42;14.20;99.90
26224;DHT22;14820;48.682;8.890;2022-08-30T05:31:20;14.30;99.90
26224;DHT22;14820;48.682;8.890;2022-08-30T05:33:47;14.30;99.90
26224;DHT22;14820;48.682;8.890;2022-08-30T05:36:14;14.40;99.90
26224;DHT22;14820;48.682;8.890;2022-08-30T05:38:41;14.40;99.90
26224;DHT22;14820;48.682;8.890;2022-08-30T05:41:07;14.40;99.90
26224;DHT22;14820;48.682;8.890;2022-08-30T05:43:33;14.40;99.90
26224;DHT22;14820;48.682;8.890;2022-08-30T05:46:04;14.40;99.90
26224;DHT22;14820;48.682;8.890;2022-08-30T05:48:31;14.40;99.90
26224;DHT22;14820;48.682;8.890;2022-08-30T05:51:06;14.40;99.90
26224;DHT22;14820;48.682;8.890;2022-08-30T05:53:32;14.50;99.90
26224;DHT22;14820;48.682;8.890;2022-08-30T05:56:00;14.50;99.90
26224;DHT22;14820;48.682;8.890;2022-08-30T05:58:26;14.60;99.90
26224;DHT22;14820;48.682;8.890;2022-08-30T06:00:52;14.70;99.90
26224;DHT22;14820;48.682;8.890;2022-08-30T06:03:17;14.70;99.90
26224;DHT22;14820;48.682;8.890;2022-08-30T06:05:43;14.80;99.90
26224;DHT22;14820;48.682;8.890;2022-08-30T06:08:09;14.80;99.90
26224;DHT22;14820;48.682;8.890;2022-08-30T06:10:34;14.90;99.90
26224;DHT22;14820;48.682;8.890;2022-08-30T06:13:00;15.00;99.90
26224;DHT22;14820;48.682;8.890;2022-08-30T06:15:26;15.10;99.90
26224;DHT22;14820;48.682;8.890;2022-08-30T06:17:51;15.20;99.90
26224;DHT22;14820;48.682;8.890;2022-08-30T06:20:17;15.30;99.90
26224;DHT22;14820;48.682;8.890;2022-08-30T06:22:45;15.40;99.90
26224;DHT22;14820;48.682;8.890;2022-08-30T06:25:11;15.50;99.90
26224;DHT22;14820;48.682;8.890;2022-08-30T06:27:37;15.70;99.90
26224;DHT22;14820;48.682;8.890;2022-08-30T06:30:04;15.70;99.90
26224;DHT22;14820;48.682;8.890;2022-08-30T06:32:33;15.80;99.90
26224;DHT22;14820;48.682;8.890;2022-08-30T06:34:59;15.90;99.90
26224;DHT22;14820;48.682;8.890;2022-08-30T06:37:25;16.00;99.90
26224;DHT22;14820;48.682;8.890;2022-08-30T06:39:50;16.10;99.90
26224;DHT22;14820;48.682;8.890;2022-08-30T06:42:16;16.20;99.90
26224;DHT22;14820;48.682;8.890;2022-08-30T06:44:42;16.30;99.90
26224;DHT22;14820;48.682;8.890;2022-08-30T06:47:07;16.40;99.90
26224;DHT22;14820;48.682;8.890;2022-08-30T06:49:33;16.50;99.90
26224;DHT22;14820;48.682;8.890;2022-08-30T06:51:59;16.60;99.90
26224;DHT22;14820;48.682;8.890;2022-08-30T06:54:25;16.70;99.90
26224;DHT22;14820;48.682;8.890;2022-08-30T06:56:50;16.80;99.90
26224;DHT22;14820;48.682;8.890;2022-08-30T06:59:16;17.00;99.90
26224;DHT22;14820;48.682;8.890;2022-08-30T07:01:42;17.00;99.90
26224;DHT22;14820;48.682;8.890;2022-08-30T07:04:08;17.10;99.90
26224;DHT22;14820;48.682;8.890;2022-08-30T07:06:33;17.30;99.90
26224;DHT22;14820;48.682;8.890;2022-08-30T07:08:59;17.30;99.90
26224;DHT22;14820;48.682;8.890;2022-08-30T07:11:34;17.40;99.90
26224;DHT22;14820;48.682;8.890;2022-08-30T07:14:00;17.50;99.90
26224;DHT22;14820;48.682;8.890;2022-08-30T07:16:26;17.50;99.90
26224;DHT22;14820;48.682;8.890;2022-08-30T07:18:53;17.50;99.90
26224;DHT22;14820;48.682;8.890;2022-08-30T07:21:40;17.60;99.90
26224;DHT22;14820;48.682;8.890;2022-08-30T07:24:10;17.70;99.90
26224;DHT22;14820;48.682;8.890;2022-08-30T07:26:38;17.80;99.90
26224;DHT22;14820;48.682;8.890;2022-08-30T07:29:05;17.80;99.90
26224;DHT22;14820;48.682;8.890;2022-08-30T07:31:30;18.00;99.90
26224;DHT22;14820;48.682;8.890;2022-08-30T07:33:58;18.00;99.90
26224;DHT22;14820;48.682;8.890;2022-08-30T07:36:24;18.10;99.90
26224;DHT22;14820;48.682;8.890;2022-08-30T07:38:50;18.20;99.90
26224;DHT22;14820;48.682;8.890;2022-08-30T07:41:19;18.30;99.90
26224;DHT22;14820;48.682;8.890;2022-08-30T07:43:46;18.40;99.90
26224;DHT22;14820;48.682;8.890;2022-08-30T07:46:11;18.50;99.90
26224;DHT22;14820;48.682;8.890;2022-08-30T07:48:37;18.70;99.90
26224;DHT22;14820;48.682;8.890;2022-08-30T07:51:08;18.80;99.90
26224;DHT22;14820;48.682;8.890;2022-08-30T07:53:34;18.90;99.90
26224;DHT22;14820;48.682;8.890;2022-08-30T07:55:59;19.10;99.90
26224;DHT22;14820;48.682;8.890;2022-08-30T07:58:25;19.10;99.90
26224;DHT22;14820;48.682;8.890;2022-08-30T08:00:51;19.30;99.90
26224;DHT22;14820;48.682;8.890;2022-08-30T08:03:16;19.40;99.90
26224;DHT22;14820;48.682;8.890;2022-08-30T08:05:43;19.40;99.90
26224;DHT22;14820;48.682;8.890;2022-08-30T08:08:10;19.60;99.90
26224;DHT22;14820;48.682;8.890;2022-08-30T08:10:38;19.70;99.90
26224;DHT22;14820;48.682;8.890;2022-08-30T08:13:05;19.90;99.90
26224;DHT22;14820;48.682;8.890;2022-08-30T08:15:30;20.10;99.90
26224;DHT22;14820;48.682;8.890;2022-08-30T08:17:56;20.20;99.90
26224;DHT22;14820;48.682;8.890;2022-08-30T08:20:22;20.40;99.90
26224;DHT22;14820;48.682;8.890;2022-08-30T08:22:49;20.60;99.90
26224;DHT22;14820;48.682;8.890;2022-08-30T08:25:15;20.70;99.90
26224;DHT22;14820;48.682;8.890;2022-08-30T08:27:41;20.80;99.90
26224;DHT22;14820;48.682;8.890;2022-08-30T08:30:07;21.00;99.90
26224;DHT22;14820;48.682;8.890;2022-08-30T08:32:32;21.10;99.90
26224;DHT22;14820;48.682;8.890;2022-08-30T08:34:58;21.20;99.90
26224;DHT22;14820;48.682;8.890;2022-08-30T08:37:24;21.40;99.90
26224;DHT22;14820;48.682;8.890;2022-08-30T08:39:50;21.40;99.90
26224;DHT22;14820;48.682;8.890;2022-08-30T08:42:47;21.50;99.90
26224;DHT22;14820;48.682;8.890;2022-08-30T08:45:16;21.60;99.90
26224;DHT22;14820;48.682;8.890;2022-08-30T08:47:56;21.60;99.90
26224;DHT22;14820;48.682;8.890;2022-08-30T08:50:23;21.70;99.90
26224;DHT22;14820;48.682;8.890;2022-08-30T08:52:49;21.80;99.90
26224;DHT22;14820;48.682;8.890;2022-08-30T08:55:39;21.90;99.90
26224;DHT22;14820;48.682;8.890;2022-08-30T08:58:06;22.00;99.90
26224;DHT22;14820;48.682;8.890;2022-08-30T09:00:31;22.10;99.90
26224;DHT22;14820;48.682;8.890;2022-08-30T09:03:00;22.20;99.90
26224;DHT22;14820;48.682;8.890;2022-08-30T09:05:30;22.30;99.90
26224;DHT22;14820;48.682;8.890;2022-08-30T09:08:02;22.50;99.90
26224;DHT22;14820;48.682;8.890;2022-08-30T09:10:31;22.60;99.90
26224;DHT22;14820;48.682;8.890;2022-08-30T09:12:58;22.70;99.90
26224;DHT22;14820;48.682;8.890;2022-08-30T09:15:30;22.80;99.90
26224;DHT22;14820;48.682;8.890;2022-08-30T09:18:00;22.90;99.90
26224;DHT22;14820;48.682;8.890;2022-08-30T09:22:55;23.00;99.90
26224;DHT22;14820;48.682;8.890;2022-08-30T09:25:24;23.10;99.90
26224;DHT22;14820;48.682;8.890;2022-08-30T09:27:51;23.20;99.90
26224;DHT22;14820;48.682;8.890;2022-08-30T09:30:27;23.30;99.90
26224;DHT22;14820;48.682;8.890;2022-08-30T09:32:55;23.40;99.90
26224;DHT22;14820;48.682;8.890;2022-08-30T09:40:50;23.70;99.90
26224;DHT22;14820;48.682;8.890;2022-08-30T09:48:39;24.00;99.90
26224;DHT22;14820;48.682;8.890;2022-08-30T09:54:03;24.10;99.90
26224;DHT22;14820;48.682;8.890;2022-08-30T10:02:25;24.20;99.90
26224;DHT22;14820;48.682;8.890;2022-08-30T10:05:19;24.20;99.90
26224;DHT22;14820;48.682;8.890;2022-08-30T10:08:07;24.40;99.90
26224;DHT22;14820;48.682;8.890;2022-08-30T10:18:39;24.70;99.90
26224;DHT22;14820;48.682;8.890;2022-08-30T10:21:23;24.80;99.90
26224;DHT22;14820;48.682;8.890;2022-08-30T10:23:51;24.80;99.90
26224;DHT22;14820;48.682;8.890;2022-08-30T10:26:25;25.00;99.90
26224;DHT22;14820;48.682;8.890;2022-08-30T10:29:12;25.00;99.90
26224;DHT22;14820;48.682;8.890;2022-08-30T10:31:44;25.10;99.90
26224;DHT22;14820;48.682;8.890;2022-08-30T10:34:36;25.20;99.90
26224;DHT22;14820;48.682;8.890;2022-08-30T10:37:14;25.10;99.90
26224;DHT22;14820;48.682;8.890;2022-08-30T10:39:46;25.20;99.90
26224;DHT22;14820;48.682;8.890;2022-08-30T10:42:33;25.20;99.90
26224;DHT22;14820;48.682;8.890;2022-08-30T10:45:17;25.30;99.90
26224;DHT22;14820;48.682;8.890;2022-08-30T10:48:00;25.40;99.90
26224;DHT22;14820;48.682;8.890;2022-08-30T10:50:39;25.50;99.90
26224;DHT22;14820;48.682;8.890;2022-08-30T10:53:12;25.60;99.40
26224;DHT22;14820;48.682;8.890;2022-08-30T10:55:56;25.60;99.90
26224;DHT22;14820;48.682;8.890;2022-08-30T10:58:23;25.70;99.90
26224;DHT22;14820;48.682;8.890;2022-08-30T11:09:45;26.00;98.40
26224;DHT22;14820;48.682;8.890;2022-08-30T11:14:45;26.00;95.80
26224;DHT22;14820;48.682;8.890;2022-08-30T11:17:33;26.10;96.30
26224;DHT22;14820;48.682;8.890;2022-08-30T11:20:02;26.20;96.90
26224;DHT22;14820;48.682;8.890;2022-08-30T11:22:35;26.30;96.50
26224;DHT22;14820;48.682;8.890;2022-08-30T11:25:14;26.30;96.20
26224;DHT22;14820;48.682;8.890;2022-08-30T11:27:53;26.30;96.70
26224;DHT22;14820;48.682;8.890;2022-08-30T11:35:47;26.10;96.60
26224;DHT22;14820;48.682;8.890;2022-08-30T11:41:11;26.00;96.60
26224;DHT22;14820;48.682;8.890;2022-08-30T12:00:30;26.20;95.20
26224;DHT22;14820;48.682;8.890;2022-08-30T12:03:02;26.10;95.60
26224;DHT22;14820;48.682;8.890;2022-08-30T12:16:16;26.00;95.60
26224;DHT22;14820;48.682;8.890;2022-08-30T12:18:48;26.00;95.60
26224;DHT22;14820;48.682;8.890;2022-08-30T12:24:06;26.10;95.70
26224;DHT22;14820;48.682;8.890;2022-08-30T12:26:43;26.20;95.50
26224;DHT22;14820;48.682;8.890;2022-08-30T12:29:29;26.20;95.30
26224;DHT22;14820;48.682;8.890;2022-08-30T12:32:05;26.20;94.80
26224;DHT22;14820;48.682;8.890;2022-08-30T12:37:23;26.30;94.60
26224;DHT22;14820;48.682;8.890;2022-08-30T12:40:07;26.40;94.30
26224;DHT22;14820;48.682;8.890;2022-08-30T12:42:36;26.50;94.10
26224;DHT22;14820;48.682;8.890;2022-08-30T12:45:12;26.50;94.40
26224;DHT22;14820;48.682;8.890;2022-08-30T12:47:57;26.70;94.50
26224;DHT22;14820;48.682;8.890;2022-08-30T12:50:27;26.80;94.20
26224;DHT22;14820;48.682;8.890;2022-08-30T12:55:26;27.00;93.30
26224;DHT22;14820;48.682;8.890;2022-08-30T12:57:59;27.10;93.80
26224;DHT22;14820;48.682;8.890;2022-08-30T13:00:32;27.20;94.00
26224;DHT22;14820;48.682;8.890;2022-08-30T13:03:01;27.30;93.60
26224;DHT22;14820;48.682;8.890;2022-08-30T13:08:16;27.30;93.20
26224;DHT22;14820;48.682;8.890;2022-08-30T13:13:39;27.30;93.70
26224;DHT22;14820;48.682;8.890;2022-08-30T13:16:09;27.30;93.70
26224;DHT22;14820;48.682;8.890;2022-08-30T13:18:36;27.40;93.70
26224;DHT22;14820;48.682;8.890;2022-08-30T13:21:24;27.40;93.20
26224;DHT22;14820;48.682;8.890;2022-08-30T13:23:54;27.50;93.10
26224;DHT22;14820;48.682;8.890;2022-08-30T13:26:20;27.50;93.10
26224;DHT22;14820;48.682;8.890;2022-08-30T13:28:50;27.50;92.50
26224;DHT22;14820;48.682;8.890;2022-08-30T13:31:16;27.50;92.80
26224;DHT22;14820;48.682;8.890;2022-08-30T13:33:41;27.60;92.50
26224;DHT22;14820;48.682;8.890;2022-08-30T13:36:13;27.70;92.20
26224;DHT22;14820;48.682;8.890;2022-08-30T13:38:39;27.70;92.10
26224;DHT22;14820;48.682;8.890;2022-08-30T13:41:06;27.80;92.00
26224;DHT22;14820;48.682;8.890;2022-08-30T13:43:31;27.80;91.70
26224;DHT22;14820;48.682;8.890;2022-08-30T13:45:57;27.80;91.20
26224;DHT22;14820;48.682;8.890;2022-08-30T13:48:24;27.80;91.10
26224;DHT22;14820;48.682;8.890;2022-08-30T13:50:50;27.70;91.10
26224;DHT22;14820;48.682;8.890;2022-08-30T13:53:16;27.70;91.10
26224;DHT22;14820;48.682;8.890;2022-08-30T13:55:42;27.70;91.30
26224;DHT22;14820;48.682;8.890;2022-08-30T13:58:08;27.60;91.50
26224;DHT22;14820;48.682;8.890;2022-08-30T14:00:34;27.50;90.90
26224;DHT22;14820;48.682;8.890;2022-08-30T14:03:00;27.40;91.20
26224;DHT22;14820;48.682;8.890;2022-08-30T14:05:29;27.30;91.20
26224;DHT22;14820;48.682;8.890;2022-08-30T14:07:56;27.20;91.30
26224;DHT22;14820;48.682;8.890;2022-08-30T14:10:24;27.20;91.40
26224;DHT22;14820;48.682;8.890;2022-08-30T14:12:50;27.30;91.30
26224;DHT22;14820;48.682;8.890;2022-08-30T14:15:16;27.30;91.10
26224;DHT22;14820;48.682;8.890;2022-08-30T14:17:42;27.20;91.10
26224;DHT22;14820;48.682;8.890;2022-08-30T14:20:08;27.20;90.90
26224;DHT22;14820;48.682;8.890;2022-08-30T14:22:34;27.10;91.00
26224;DHT22;14820;48.682;8.890;2022-08-30T14:24:59;27.10;90.90
26224;DHT22;14820;48.682;8.890;2022-08-30T14:27:27;27.20;90.70
26224;DHT22;14820;48.682;8.890;2022-08-30T14:29:53;27.20;90.70
26224;DHT22;14820;48.682;8.890;2022-08-30T14:32:19;27.20;90.60
26224;DHT22;14820;48.682;8.890;2022-08-30T14:34:44;27.20;90.40
26224;DHT22;14820;48.682;8.890;2022-08-30T14:37:10;27.20;90.40
26224;DHT22;14820;48.682;8.890;2022-08-30T14:39:36;27.20;90.60
26224;DHT22;14820;48.682;8.890;2022-08-30T14:42:02;27.20;90.60
26224;DHT22;14820;48.682;8.890;2022-08-30T14:44:28;27.20;90.90
26224;DHT22;14820;48.682;8.890;2022-08-30T14:46:55;27.20;90.80
26224;DHT22;14820;48.682;8.890;2022-08-30T14:49:22;27.30;90.70
26224;DHT22;14820;48.682;8.890;2022-08-30T14:51:48;27.30;90.50
26224;DHT22;14820;48.682;8.890;2022-08-30T14:54:17;27.30;90.60
26224;DHT22;14820;48.682;8.890;2022-08-30T14:56:43;27.30;90.70
26224;DHT22;14820;48.682;8.890;2022-08-30T14:59:09;27.30;90.40
26224;DHT22;14820;48.682;8.890;2022-08-30T15:01:37;27.30;90.40
26224;DHT22;14820;48.682;8.890;2022-08-30T15:04:04;27.30;90.50
26224;DHT22;14820;48.682;8.890;2022-08-30T15:06:31;27.30;90.70
26224;DHT22;14820;48.682;8.890;2022-08-30T15:08:57;27.20;90.60
26224;DHT22;14820;48.682;8.890;2022-08-30T15:11:25;27.20;90.40
26224;DHT22;14820;48.682;8.890;2022-08-30T15:13:51;27.20;90.30
26224;DHT22;14820;48.682;8.890;2022-08-30T15:16:20;27.10;90.40
26224;DHT22;14820;48.682;8.890;2022-08-30T15:18:47;27.10;90.40
26224;DHT22;14820;48.682;8.890;2022-08-30T15:21:13;27.00;90.30
26224;DHT22;14820;48.682;8.890;2022-08-30T15:23:39;27.00;90.30
26224;DHT22;14820;48.682;8.890;2022-08-30T15:26:06;26.90;90.20
26224;DHT22;14820;48.682;8.890;2022-08-30T15:28:32;26.80;90.30
26224;DHT22;14820;48.682;8.890;2022-08-30T15:30:58;26.80;90.60
26224;DHT22;14820;48.682;8.890;2022-08-30T15:33:24;26.70;90.10
26224;DHT22;14820;48.682;8.890;2022-08-30T15:35:50;26.70;90.40
26224;DHT22;14820;48.682;8.890;2022-08-30T15:38:17;26.70;90.40
26224;DHT22;14820;48.682;8.890;2022-08-30T15:40:47;26.70;90.00
26224;DHT22;14820;48.682;8.890;2022-08-30T15:43:12;26.70;90.20
26224;DHT22;14820;48.682;8.890;2022-08-30T15:45:38;26.70;90.30
26224;DHT22;14820;48.682;8.890;2022-08-30T15:48:04;26.60;90.20
26224;DHT22;14820;48.682;8.890;2022-08-30T15:50:29;26.60;90.10
26224;DHT22;14820;48.682;8.890;2022-08-30T15:52:55;26.60;90.10
26224;DHT22;14820;48.682;8.890;2022-08-30T15:55:21;26.60;90.10
26224;DHT22;14820;48.682;8.890;2022-08-30T15:57:47;26.60;90.40
26224;DHT22;14820;48.682;8.890;2022-08-30T16:00:13;26.60;90.40
26224;DHT22;14820;48.682;8.890;2022-08-30T16:02:38;26.50;90.50
26224;DHT22;14820;48.682;8.890;2022-08-30T16:05:04;26.50;90.30
26224;DHT22;14820;48.682;8.890;2022-08-30T16:07:30;26.50;90.50
26224;DHT22;14820;48.682;8.890;2022-08-30T16:09:56;26.40;90.50
26224;DHT22;14820;48.682;8.890;2022-08-30T16:12:22;26.30;90.60
26224;DHT22;14820;48.682;8.890;2022-08-30T16:14:47;26.30;90.50
26224;DHT22;14820;48.682;8.890;2022-08-30T16:17:13;26.30;90.60
26224;DHT22;14820;48.682;8.890;2022-08-30T16:19:38;26.20;90.50
26224;DHT22;14820;48.682;8.890;2022-08-30T16:22:04;26.20;90.70
26224;DHT22;14820;48.682;8.890;2022-08-30T16:24:30;26.10;90.70
26224;DHT22;14820;48.682;8.890;2022-08-30T16:26:56;26.10;90.90
26224;DHT22;14820;48.682;8.890;2022-08-30T16:29:22;26.10;91.00
26224;DHT22;14820;48.682;8.890;2022-08-30T16:31:48;26.00;91.30
26224;DHT22;14820;48.682;8.890;2022-08-30T16:34:16;26.00;91.60
26224;DHT22;14820;48.682;8.890;2022-08-30T16:36:42;26.00;91.80
26224;DHT22;14820;48.682;8.890;2022-08-30T16:39:09;25.90;91.90
26224;DHT22;14820;48.682;8.890;2022-08-30T16:41:36;25.90;92.00
26224;DHT22;14820;48.682;8.890;2022-08-30T16:44:02;25.90;92.10
26224;DHT22;14820;48.682;8.890;2022-08-30T16:46:28;25.90;92.50
26224;DHT22;14820;48.682;8.890;2022-08-30T16:48:58;25.80;92.20
26224;DHT22;14820;48.682;8.890;2022-08-30T16:51:27;25.80;92.30
26224;DHT22;14820;48.682;8.890;2022-08-30T16:53:57;25.70;92.30
26224;DHT22;14820;48.682;8.890;2022-08-30T16:56:25;25.70;92.50
26224;DHT22;14820;48.682;8.890;2022-08-30T16:58:51;25.70;92.50
26224;DHT22;14820;48.682;8.890;2022-08-30T17:01:21;25.60;92.60
26224;DHT22;14820;48.682;8.890;2022-08-30T17:03:47;25.60;92.90
26224;DHT22;14820;48.682;8.890;2022-08-30T17:06:14;25.60;92.70